createdAt,value
2022-10-02T00:00:44.926Z,14.50
2022-10-02T00:03:21.148Z,8.70
2022-10-02T00:05:53.533Z,11.30
2022-10-02T00:08:26.227Z,12.32
2022-10-02T00:10:57.522Z,8.18
2022-10-02T00:13:29.927Z,14.90
2022-10-02T00:15:58.680Z,11.95
2022-10-02T00:18:32.510Z,8.48
2022-10-02T00:21:05.154Z,14.52
2022-10-02T00:23:38.135Z,9.20
2022-10-02T00:26:13.905Z,12.63
2022-10-02T00:28:48.721Z,7.18
2022-10-02T00:31:28.210Z,9.57
2022-10-02T00:34:14.350Z,10.30
2022-10-02T00:36:49.953Z,9.95
2022-10-02T00:39:33.457Z,10.75
2022-10-02T00:42:38.318Z,9.10
2022-10-02T00:45:54.449Z,10.55
2022-10-02T00:48:45.454Z,22.17
2022-10-02T00:51:30.216Z,11.63
2022-10-02T00:54:14.185Z,12.07
2022-10-02T00:56:47.915Z,10.60
2022-10-02T00:59:36.156Z,12.00
2022-10-02T01:02:14.984Z,11.48
2022-10-02T01:04:43.571Z,14.52
2022-10-02T01:07:15.463Z,7.68
2022-10-02T01:09:44.737Z,7.38
2022-10-02T01:12:14.264Z,9.52
2022-10-02T01:14:42.931Z,8.35
2022-10-02T01:17:24.757Z,9.43
2022-10-02T01:19:53.117Z,12.07
2022-10-02T01:22:30.792Z,11.10
2022-10-02T01:25:04.178Z,5.72
2022-10-02T01:27:38.140Z,10.73
2022-10-02T01:30:11.440Z,10.93
2022-10-02T01:32:43.942Z,6.40
2022-10-02T01:35:14.493Z,8.30
2022-10-02T01:37:45.482Z,8.20
2022-10-02T01:40:25.985Z,10.25
2022-10-02T01:42:55.103Z,9.48
2022-10-02T01:45:32.844Z,9.77
2022-10-02T01:48:07.558Z,10.43
2022-10-02T01:50:49.306Z,11.00
2022-10-02T01:53:24.198Z,11.07
2022-10-02T01:56:05.164Z,8.68
2022-10-02T01:58:42.612Z,12.18
2022-10-02T02:01:18.205Z,9.52
2022-10-02T02:03:53.579Z,9.38
2022-10-02T02:06:28.467Z,10.05
2022-10-02T02:09:05.640Z,10.70
2022-10-02T02:11:42.047Z,6.88
2022-10-02T02:14:17.248Z,11.48
2022-10-02T02:16:48.844Z,10.02
2022-10-02T02:19:21.582Z,8.13
2022-10-02T02:21:54.089Z,8.98
2022-10-02T02:24:30.670Z,9.77
2022-10-02T02:27:02.566Z,10.80
2022-10-02T02:29:34.844Z,9.88
2022-10-02T02:32:06.825Z,10.65
2022-10-02T02:34:40.975Z,9.98
2022-10-02T02:37:16.493Z,11.07
2022-10-02T02:39:49.491Z,13.02
2022-10-02T02:42:26.044Z,10.20
2022-10-02T02:44:58.431Z,7.80
2022-10-02T02:47:30.173Z,10.40
2022-10-02T02:50:02.450Z,7.78
2022-10-02T02:52:34.250Z,12.15
2022-10-02T02:55:07.176Z,8.45
2022-10-02T02:57:42.544Z,9.00
2022-10-02T03:00:13.770Z,7.47
2022-10-02T03:02:42.382Z,9.73
2022-10-02T03:05:15.648Z,12.48
2022-10-02T03:07:52.208Z,5.63
2022-10-02T03:10:32.279Z,7.35
2022-10-02T03:13:12.941Z,9.75
2022-10-02T03:15:53.137Z,10.80
2022-10-02T03:18:37.752Z,9.90
2022-10-02T03:21:14.040Z,6.68
2022-10-02T03:23:59.437Z,9.20
2022-10-02T03:26:36.449Z,12.48
2022-10-02T03:29:10.897Z,9.93
2022-10-02T03:31:40.247Z,9.35
2022-10-02T03:34:09.143Z,12.05
2022-10-02T03:36:38.994Z,8.77
2022-10-02T03:39:25.644Z,8.57
2022-10-02T03:41:55.137Z,12.50
2022-10-02T03:44:27.272Z,11.30
2022-10-02T03:46:55.753Z,11.55
2022-10-02T03:49:24.262Z,9.30
2022-10-02T03:51:52.379Z,7.03
2022-10-02T03:54:22.808Z,10.27
2022-10-02T03:56:56.199Z,9.27
2022-10-02T03:59:45.746Z,12.05
2022-10-02T04:02:30.896Z,10.52
2022-10-02T04:05:06.828Z,9.35
2022-10-02T04:07:40.760Z,10.32
2022-10-02T04:10:22.398Z,9.98
2022-10-02T04:12:53.081Z,5.28
2022-10-02T04:15:28.554Z,9.80
2022-10-02T04:18:01.700Z,12.15
2022-10-02T04:20:36.195Z,9.60
2022-10-02T04:23:13.901Z,11.68
2022-10-02T04:25:47.492Z,11.38
2022-10-02T04:28:19.769Z,12.18
2022-10-02T04:30:49.249Z,9.18
2022-10-02T04:33:20.674Z,10.93
2022-10-02T04:35:57.475Z,10.75
2022-10-02T04:38:51.245Z,11.38
2022-10-02T04:41:37.281Z,12.82
2022-10-02T04:44:16.268Z,12.35
2022-10-02T04:46:58.221Z,9.55
2022-10-02T04:49:50.980Z,14.57
2022-10-02T04:52:33.710Z,12.65
2022-10-02T04:55:32.713Z,13.77
2022-10-02T04:58:31.088Z,14.55
2022-10-02T05:01:09.499Z,18.23
2022-10-02T05:04:00.699Z,17.65
2022-10-02T05:06:50.388Z,11.50
2022-10-02T05:09:28.783Z,13.55
2022-10-02T05:12:17.413Z,13.07
2022-10-02T05:15:09.705Z,14.68
2022-10-02T05:17:49.312Z,18.27
2022-10-02T05:20:46.749Z,10.77
2022-10-02T05:23:39.637Z,8.77
2022-10-02T05:26:29.098Z,10.40
2022-10-02T05:29:17.790Z,12.73
2022-10-02T05:31:58.549Z,14.63
2022-10-02T05:34:46.515Z,7.90
2022-10-02T05:37:41.090Z,13.02
2022-10-02T05:40:19.272Z,14.57
2022-10-02T05:42:56.426Z,11.88
2022-10-02T05:45:29.192Z,13.45
2022-10-02T05:48:06.038Z,16.67
2022-10-02T05:50:37.338Z,13.40
2022-10-02T05:53:20.029Z,14.45
2022-10-02T05:55:52.682Z,13.00
2022-10-02T05:58:26.312Z,11.30
2022-10-02T06:01:01.942Z,11.43
2022-10-02T06:03:38.295Z,11.75
2022-10-02T06:06:11.891Z,10.73
2022-10-02T06:08:48.356Z,12.93
2022-10-02T06:11:21.760Z,13.02
2022-10-02T06:13:54.042Z,8.70
2022-10-02T06:16:27.646Z,13.82
2022-10-02T06:19:01.015Z,11.85
2022-10-02T06:21:37.181Z,12.43
2022-10-02T06:24:13.490Z,13.07
2022-10-02T06:26:46.794Z,11.23
2022-10-02T06:29:26.905Z,13.30
2022-10-02T06:32:06.331Z,11.43
2022-10-02T06:34:34.497Z,9.10
2022-10-02T06:37:22.021Z,12.70
2022-10-02T06:40:04.473Z,12.68
2022-10-02T06:42:42.760Z,10.98
2022-10-02T06:45:21.203Z,8.32
2022-10-02T06:48:03.179Z,11.52
2022-10-02T06:50:42.820Z,9.98
2022-10-02T06:53:39.150Z,10.85
2022-10-02T06:56:38.801Z,10.05
2022-10-02T06:59:21.083Z,14.63
2022-10-02T07:01:58.580Z,8.68
2022-10-02T07:04:52.899Z,9.40
2022-10-02T07:07:43.095Z,11.68
2022-10-02T07:10:26.582Z,12.90
2022-10-02T07:13:13.594Z,10.52
2022-10-02T07:16:00.758Z,9.80
2022-10-02T07:18:43.155Z,13.50
2022-10-02T07:21:20.836Z,11.60
2022-10-02T07:24:00.069Z,11.50
2022-10-02T07:26:46.516Z,12.82
2022-10-02T07:29:30.845Z,8.90
2022-10-02T07:32:13.475Z,14.05
2022-10-02T07:34:53.125Z,10.95
2022-10-02T07:37:30.489Z,10.77
2022-10-02T07:40:17.524Z,11.82
2022-10-02T07:43:14.414Z,11.27
2022-10-02T07:45:52.591Z,9.57
2022-10-02T07:48:39.220Z,9.35
2022-10-02T07:51:37.399Z,8.23
2022-10-02T07:54:25.025Z,7.95
2022-10-02T07:56:55.096Z,9.43
2022-10-02T07:59:23.328Z,8.50
2022-10-02T08:01:55.300Z,8.48
2022-10-02T08:04:34.672Z,10.63
2022-10-02T08:07:06.581Z,9.50
2022-10-02T08:09:38.774Z,7.97
2022-10-02T08:12:13.412Z,7.15
2022-10-02T08:14:43.436Z,9.77
2022-10-02T08:17:30.223Z,7.00
2022-10-02T08:20:04.123Z,8.32
2022-10-02T08:22:37.974Z,10.27
2022-10-02T08:25:15.358Z,11.98
2022-10-02T08:27:51.303Z,8.57
2022-10-02T08:30:20.092Z,10.23
2022-10-02T08:32:49.804Z,6.53
2022-10-02T08:35:19.881Z,5.63
2022-10-02T08:38:13.297Z,8.20
2022-10-02T08:41:05.500Z,6.70
2022-10-02T08:44:06.983Z,5.20
2022-10-02T08:47:10.627Z,5.50
2022-10-02T08:50:03.841Z,7.47
2022-10-02T08:53:12.641Z,4.95
2022-10-02T08:56:19.197Z,6.85
2022-10-02T08:59:26.875Z,3.85
2022-10-02T09:02:41.472Z,7.05
2022-10-02T09:05:56.404Z,4.50
2022-10-02T09:08:59.058Z,4.38
2022-10-02T09:12:21.629Z,5.13
2022-10-02T09:14:58.069Z,3.60
2022-10-02T09:18:04.066Z,3.63
2022-10-02T09:21:04.438Z,4.85
2022-10-02T09:24:06.092Z,8.70
2022-10-02T09:26:48.337Z,4.00
2022-10-02T09:29:56.777Z,4.68
2022-10-02T09:33:01.558Z,3.40
2022-10-02T09:36:01.891Z,3.70
2022-10-02T09:39:06.053Z,4.00
2022-10-02T09:42:10.075Z,4.10
2022-10-02T09:45:03.452Z,5.10
2022-10-02T09:47:54.361Z,4.63
2022-10-02T09:51:00.252Z,4.97
2022-10-02T09:53:56.394Z,4.10
2022-10-02T09:56:51.016Z,3.88
2022-10-02T09:59:58.243Z,3.78
2022-10-02T10:03:04.175Z,3.83
2022-10-02T10:06:08.996Z,4.55
2022-10-02T10:09:11.591Z,8.50
2022-10-02T10:12:08.547Z,5.15
2022-10-02T10:15:10.556Z,4.40
2022-10-02T10:18:04.387Z,3.83
2022-10-02T10:21:00.844Z,2.38
2022-10-02T10:24:04.009Z,3.17
2022-10-02T10:27:11.064Z,4.20
2022-10-02T10:30:11.093Z,2.22
2022-10-02T10:33:18.571Z,4.43
2022-10-02T10:35:57.097Z,2.65
2022-10-02T10:38:40.176Z,2.40
2022-10-02T10:41:58.894Z,2.35
2022-10-02T10:45:09.448Z,3.65
2022-10-02T10:48:03.338Z,4.22
2022-10-02T10:50:45.321Z,4.70
2022-10-02T10:53:34.734Z,6.57
2022-10-02T10:56:36.807Z,2.78
2022-10-02T10:59:37.330Z,3.53
2022-10-02T11:02:36.530Z,3.20
2022-10-02T11:05:29.879Z,3.92
2022-10-02T11:08:14.208Z,3.80
2022-10-02T11:10:56.866Z,2.50
2022-10-02T11:13:47.123Z,2.97
2022-10-02T11:16:33.853Z,3.67
2022-10-02T11:19:23.251Z,2.80
2022-10-02T11:22:20.446Z,2.90
2022-10-02T11:25:16.836Z,2.08
2022-10-02T11:28:12.401Z,2.20
2022-10-02T11:30:53.750Z,3.17
2022-10-02T11:33:42.818Z,3.97
2022-10-02T11:36:42.730Z,2.72
2022-10-02T11:39:43.030Z,3.10
2022-10-02T11:42:35.643Z,2.90
2022-10-02T11:45:50.366Z,2.67
2022-10-02T11:48:46.686Z,5.45
2022-10-02T11:51:36.505Z,3.30
2022-10-02T11:54:30.486Z,3.00
2022-10-02T11:57:24.207Z,1.88
2022-10-02T12:00:14.183Z,3.20
2022-10-02T12:03:02.289Z,3.25
2022-10-02T12:05:57.977Z,4.35
2022-10-02T12:08:47.512Z,4.13
2022-10-02T12:11:22.549Z,3.42
2022-10-02T12:14:10.174Z,6.57
2022-10-02T12:16:48.739Z,3.25
2022-10-02T12:19:33.055Z,3.75
2022-10-02T12:22:32.549Z,4.53
2022-10-02T12:25:33.752Z,3.20
2022-10-02T12:28:10.477Z,3.67
2022-10-02T12:30:43.873Z,4.70
2022-10-02T12:33:21.255Z,3.17
2022-10-02T12:36:08.571Z,3.13
2022-10-02T12:38:55.651Z,3.35
2022-10-02T12:41:43.695Z,5.85
2022-10-02T12:44:55.083Z,3.53
2022-10-02T12:47:46.969Z,2.42
2022-10-02T12:50:24.867Z,2.17
2022-10-02T12:53:29.836Z,2.65
2022-10-02T12:56:34.495Z,2.35
2022-10-02T12:59:15.842Z,2.28
2022-10-02T13:02:18.786Z,2.50
2022-10-02T13:05:15.290Z,3.22
2022-10-02T13:08:20.046Z,3.60
2022-10-02T13:10:58.085Z,4.85
2022-10-02T13:13:42.084Z,3.42
2022-10-02T13:16:21.205Z,5.03
2022-10-02T13:19:06.937Z,3.70
2022-10-02T13:21:47.259Z,4.65
2022-10-02T13:24:35.953Z,2.90
2022-10-02T13:27:18.670Z,2.83
2022-10-02T13:30:03.743Z,4.38
2022-10-02T13:32:58.746Z,3.40
2022-10-02T13:35:46.017Z,5.90
2022-10-02T13:38:31.144Z,3.45
2022-10-02T13:41:09.328Z,5.97
2022-10-02T13:44:00.872Z,3.47
2022-10-02T13:46:45.074Z,3.90
2022-10-02T13:49:28.727Z,2.67
2022-10-02T13:52:03.334Z,3.13
2022-10-02T13:54:43.771Z,6.78
2022-10-02T13:57:27.174Z,5.63
2022-10-02T14:00:03.839Z,3.10
2022-10-02T14:03:04.585Z,2.22
2022-10-02T14:05:43.430Z,3.55
2022-10-02T14:08:30.514Z,3.78
2022-10-02T14:11:10.328Z,2.88
2022-10-02T14:13:51.226Z,2.83
2022-10-02T14:16:34.560Z,3.58
2022-10-02T14:19:29.638Z,4.78
2022-10-02T14:22:22.907Z,4.85
2022-10-02T14:25:08.190Z,3.20
2022-10-02T14:28:18.568Z,4.65
2022-10-02T14:31:00.545Z,3.50
2022-10-02T14:33:51.411Z,2.53
2022-10-02T14:36:27.220Z,4.20
2022-10-02T14:39:11.716Z,3.55
2022-10-02T14:41:52.815Z,4.28
2022-10-02T14:44:44.759Z,4.10
2022-10-02T14:47:26.724Z,4.88
2022-10-02T14:50:19.700Z,3.92
2022-10-02T14:53:30.606Z,4.25
2022-10-02T14:56:29.983Z,3.08
2022-10-02T14:59:20.206Z,2.92
2022-10-02T15:02:02.729Z,4.90
2022-10-02T15:04:42.574Z,3.30
2022-10-02T15:07:13.925Z,4.10
2022-10-02T15:09:54.315Z,3.17
2022-10-02T15:12:29.889Z,5.43
2022-10-02T15:15:10.107Z,5.43
2022-10-02T15:18:00.459Z,4.72
2022-10-02T15:20:40.534Z,25.63
2022-10-02T15:23:13.733Z,5.30
2022-10-02T15:26:03.412Z,4.05
2022-10-02T15:28:51.401Z,6.47
2022-10-02T15:31:27.199Z,4.75
2022-10-02T15:34:06.702Z,7.60
2022-10-02T15:36:55.539Z,6.72
2022-10-02T15:39:43.742Z,4.93
2022-10-02T15:42:17.122Z,4.00
2022-10-02T15:45:09.620Z,3.85
2022-10-02T15:47:57.571Z,3.97
2022-10-02T15:50:41.057Z,1.90
2022-10-02T15:53:32.705Z,9.13
2022-10-02T15:56:20.089Z,4.68
2022-10-02T15:59:06.347Z,4.22
2022-10-02T16:01:49.161Z,3.72
2022-10-02T16:04:27.461Z,5.40
2022-10-02T16:07:36.433Z,3.85
2022-10-02T16:10:20.751Z,3.17
2022-10-02T16:13:08.245Z,3.88
2022-10-02T16:15:50.579Z,3.50
2022-10-02T16:18:44.799Z,4.53
2022-10-02T16:21:47.236Z,5.68
2022-10-02T16:24:45.417Z,4.55
2022-10-02T16:27:28.722Z,6.72
2022-10-02T16:30:13.303Z,5.60
2022-10-02T16:33:10.977Z,5.78
2022-10-02T16:36:17.508Z,6.57
2022-10-02T16:38:50.412Z,8.45
2022-10-02T16:41:36.918Z,7.05
2022-10-02T16:44:47.522Z,8.10
2022-10-02T16:47:27.601Z,9.75
2022-10-02T16:50:06.129Z,10.88
2022-10-02T16:52:42.486Z,11.25
2022-10-02T16:55:21.883Z,11.43
2022-10-02T16:57:59.190Z,7.03
2022-10-02T17:00:33.353Z,8.43
2022-10-02T17:03:10.063Z,7.75
2022-10-02T17:05:49.639Z,7.35
2022-10-02T17:08:24.698Z,8.18
2022-10-02T17:11:10.527Z,9.95
2022-10-02T17:13:59.993Z,7.88
2022-10-02T17:16:36.432Z,6.10
2022-10-02T17:19:21.975Z,7.68
2022-10-02T17:21:58.140Z,7.63
2022-10-02T17:24:43.734Z,9.23
2022-10-02T17:27:17.943Z,8.07
2022-10-02T17:29:58.925Z,9.05
2022-10-02T17:32:48.240Z,8.00
2022-10-02T17:35:27.622Z,8.90
2022-10-02T17:38:20.557Z,9.40
2022-10-02T17:40:58.870Z,12.05
2022-10-02T17:43:37.213Z,11.43
2022-10-02T17:46:44.507Z,11.98
2022-10-02T17:49:25.707Z,9.55
2022-10-02T17:52:24.978Z,7.65
2022-10-02T17:55:25.228Z,8.48
2022-10-02T17:58:06.799Z,7.78
2022-10-02T18:00:39.664Z,7.97
2022-10-02T18:03:36.702Z,10.20
2022-10-02T18:06:22.653Z,8.45
2022-10-02T18:09:09.016Z,8.75
2022-10-02T18:11:59.251Z,9.32
2022-10-02T18:15:02.341Z,9.55
2022-10-02T18:17:43.587Z,8.23
2022-10-02T18:20:28.516Z,7.68
2022-10-02T18:23:16.761Z,9.18
2022-10-02T18:25:59.278Z,8.65
2022-10-02T18:28:47.022Z,8.73
2022-10-02T18:31:53.980Z,10.02
2022-10-02T18:34:57.812Z,11.63
2022-10-02T18:37:46.479Z,10.45
2022-10-02T18:40:25.563Z,8.80
2022-10-02T18:43:27.366Z,7.53
2022-10-02T18:46:24.819Z,13.32
2022-10-02T18:49:31.656Z,8.73
2022-10-02T18:52:29.998Z,14.40
2022-10-02T18:55:16.600Z,9.75
2022-10-02T18:57:56.568Z,9.98
2022-10-02T19:00:43.404Z,9.88
2022-10-02T19:03:29.188Z,12.85
2022-10-02T19:06:09.118Z,13.10
2022-10-02T19:09:00.225Z,12.13
2022-10-02T19:11:30.785Z,12.68
2022-10-02T19:14:03.309Z,10.68
2022-10-02T19:16:31.787Z,11.75
2022-10-02T19:19:16.378Z,26.00
2022-10-02T19:21:46.751Z,19.85
2022-10-02T19:24:20.399Z,18.45
2022-10-02T19:26:54.616Z,15.30
2022-10-02T19:29:56.384Z,12.00
2022-10-02T19:32:28.648Z,13.85
2022-10-02T19:35:03.486Z,12.20
2022-10-02T19:37:41.456Z,11.00
2022-10-02T19:40:16.809Z,15.02
2022-10-02T19:42:49.506Z,11.88
2022-10-02T19:45:26.826Z,14.00
2022-10-02T19:47:57.710Z,12.32
2022-10-02T19:50:37.409Z,12.30
2022-10-02T19:53:21.573Z,13.77
2022-10-02T19:55:57.161Z,14.77
2022-10-02T19:58:33.202Z,12.70
2022-10-02T20:01:02.161Z,13.90
2022-10-02T20:03:34.525Z,14.02
2022-10-02T20:06:12.300Z,15.38
2022-10-02T20:08:48.477Z,13.88
2022-10-02T20:11:22.775Z,14.38
2022-10-02T20:14:04.849Z,14.68
2022-10-02T20:16:52.352Z,14.68
2022-10-02T20:19:24.651Z,14.02
2022-10-02T20:21:55.961Z,12.65
2022-10-02T20:24:32.172Z,19.77
2022-10-02T20:27:06.051Z,15.50
2022-10-02T20:29:45.967Z,14.80
2022-10-02T20:32:23.552Z,16.42
2022-10-02T20:34:55.857Z,17.38
2022-10-02T20:37:29.356Z,15.73
2022-10-02T20:40:04.765Z,18.63
2022-10-02T20:42:40.484Z,17.38
2022-10-02T20:45:12.871Z,16.65
2022-10-02T20:48:05.989Z,18.40
2022-10-02T20:50:49.859Z,12.90
2022-10-02T20:53:57.221Z,12.65
2022-10-02T20:56:49.300Z,14.52
2022-10-02T20:59:39.993Z,15.18
2022-10-02T21:02:25.492Z,13.90
2022-10-02T21:05:18.367Z,13.55
2022-10-02T21:08:06.899Z,13.68
2022-10-02T21:11:13.441Z,12.07
2022-10-02T21:14:31.043Z,14.23
2022-10-02T21:17:29.281Z,14.45
2022-10-02T21:20:50.756Z,14.98
2022-10-02T21:23:55.084Z,13.43
2022-10-02T21:26:50.707Z,15.15
2022-10-02T21:29:53.839Z,14.48
2022-10-02T21:32:47.132Z,14.90
2022-10-02T21:35:36.535Z,15.10
2022-10-02T21:38:42.687Z,15.85
2022-10-02T21:41:47.232Z,15.93
2022-10-02T21:45:03.510Z,19.65
2022-10-02T21:48:30.722Z,19.63
2022-10-02T21:51:38.633Z,25.10
2022-10-02T21:54:47.938Z,20.92
2022-10-02T21:57:45.824Z,20.40
2022-10-02T22:00:17.152Z,18.75
2022-10-02T22:03:22.011Z,23.65
2022-10-02T22:06:23.025Z,18.65
2022-10-02T22:09:22.983Z,20.42
2022-10-02T22:12:06.973Z,20.85
2022-10-02T22:17:46.049Z,16.92
2022-10-02T22:20:35.069Z,19.23
2022-10-02T22:23:30.797Z,16.15
2022-10-02T22:26:12.730Z,14.27
2022-10-02T22:28:45.613Z,15.77
2022-10-02T22:31:34.540Z,13.10
2022-10-02T22:34:29.930Z,16.55
2022-10-02T22:37:16.791Z,14.50
2022-10-02T22:39:49.893Z,14.95
2022-10-02T22:42:24.974Z,11.98
2022-10-02T22:44:58.174Z,12.40
2022-10-02T22:47:35.946Z,14.23
2022-10-02T22:50:09.666Z,14.45
2022-10-02T22:52:49.725Z,12.40
2022-10-02T22:55:22.696Z,11.20
2022-10-02T22:57:59.937Z,11.48
2022-10-02T23:00:32.120Z,12.95
2022-10-02T23:03:06.798Z,12.57
2022-10-02T23:05:41.923Z,12.05
2022-10-02T23:08:21.491Z,14.35
2022-10-02T23:10:54.398Z,13.13
2022-10-02T23:13:29.638Z,13.65
2022-10-02T23:16:02.171Z,13.10
2022-10-02T23:18:40.774Z,13.25
2022-10-02T23:21:24.364Z,12.25
2022-10-02T23:23:58.186Z,15.27
2022-10-02T23:26:35.212Z,15.70
2022-10-02T23:29:25.914Z,14.40
2022-10-02T23:31:59.525Z,14.60
2022-10-02T23:34:47.279Z,16.60
2022-10-02T23:37:23.985Z,16.27
2022-10-02T23:39:59.087Z,13.80
2022-10-02T23:42:33.292Z,16.15
2022-10-02T23:45:08.327Z,17.75
2022-10-02T23:47:49.436Z,14.90
2022-10-02T23:50:23.919Z,17.40
2022-10-02T23:53:09.720Z,14.13
2022-10-02T23:56:04.402Z,15.85
2022-10-02T23:58:56.950Z,20.45
